sensor_id;sensor_type;location;lat;lon;timestamp;pressure;altitude;pressure_sealevel;temperature;humidity
62712;BME280;48772;55.586;37.730;2023-01-26T00:01:27;100003.50;;;-2.95;100.00
62712;BME280;48772;55.586;37.730;2023-01-26T00:03:54;100062.78;;;-2.60;100.00
62712;BME280;48772;55.586;37.730;2023-01-26T00:06:21;100075.84;;;-2.60;100.00
62712;BME280;48772;55.586;37.730;2023-01-26T00:08:52;100042.16;;;-2.71;100.00
62712;BME280;48772;55.586;37.730;2023-01-26T00:11:22;100068.00;;;-2.60;100.00
62712;BME280;48772;55.586;37.730;2023-01-26T00:13:52;100005.06;;;-2.86;100.00
62712;BME280;48772;55.586;37.730;2023-01-26T00:16:18;100058.41;;;-2.58;100.00
62712;BME280;48772;55.586;37.730;2023-01-26T00:18:44;100029.13;;;-2.72;100.00
62712;BME280;48772;55.586;37.730;2023-01-26T00:21:17;99997.50;;;-2.98;100.00
62712;BME280;48772;55.586;37.730;2023-01-26T00:23:44;100041.91;;;-2.60;100.00
62712;BME280;48772;55.586;37.730;2023-01-26T00:26:15;100039.50;;;-2.68;100.00
62712;BME280;48772;55.586;37.730;2023-01-26T00:28:45;100042.25;;;-2.75;100.00
62712;BME280;48772;55.586;37.730;2023-01-26T00:31:16;100061.00;;;-2.57;100.00
62712;BME280;48772;55.586;37.730;2023-01-26T00:33:42;100017.31;;;-2.88;100.00
62712;BME280;48772;55.586;37.730;2023-01-26T00:36:09;100043.00;;;-2.69;100.00
62712;BME280;48772;55.586;37.730;2023-01-26T00:38:36;100045.53;;;-2.67;100.00
62712;BME280;48772;55.586;37.730;2023-01-26T00:41:02;100052.63;;;-2.72;100.00
62712;BME280;48772;55.586;37.730;2023-01-26T00:43:28;100059.44;;;-2.65;100.00
62712;BME280;48772;55.586;37.730;2023-01-26T00:45:54;100055.16;;;-2.68;100.00
62712;BME280;48772;55.586;37.730;2023-01-26T00:48:19;100066.47;;;-2.69;100.00
62712;BME280;48772;55.586;37.730;2023-01-26T00:50:45;100032.16;;;-2.92;100.00
62712;BME280;48772;55.586;37.730;2023-01-26T00:53:11;100022.66;;;-2.96;100.00
62712;BME280;48772;55.586;37.730;2023-01-26T00:55:37;99991.63;;;-3.08;100.00
62712;BME280;48772;55.586;37.730;2023-01-26T00:58:06;100049.94;;;-2.68;100.00
62712;BME280;48772;55.586;37.730;2023-01-26T01:00:34;99989.75;;;-3.01;100.00
62712;BME280;48772;55.586;37.730;2023-01-26T01:03:01;100023.34;;;-2.86;100.00
62712;BME280;48772;55.586;37.730;2023-01-26T01:05:29;100052.63;;;-2.72;100.00
62712;BME280;48772;55.586;37.730;2023-01-26T01:07:55;100018.13;;;-2.86;100.00
62712;BME280;48772;55.586;37.730;2023-01-26T01:10:22;99959.78;;;-3.23;100.00
62712;BME280;48772;55.586;37.730;2023-01-26T01:12:49;99993.22;;;-3.01;100.00
62712;BME280;48772;55.586;37.730;2023-01-26T01:15:15;99975.25;;;-3.14;100.00
62712;BME280;48772;55.586;37.730;2023-01-26T01:17:41;99914.47;;;-3.59;100.00
62712;BME280;48772;55.586;37.730;2023-01-26T01:20:09;99964.81;;;-3.14;100.00
62712;BME280;48772;55.586;37.730;2023-01-26T01:22:36;99934.13;;;-3.45;100.00
62712;BME280;48772;55.586;37.730;2023-01-26T01:25:02;99960.34;;;-3.08;100.00
62712;BME280;48772;55.586;37.730;2023-01-26T01:27:33;99899.81;;;-3.65;100.00
62712;BME280;48772;55.586;37.730;2023-01-26T01:29:59;99907.56;;;-3.62;100.00
62712;BME280;48772;55.586;37.730;2023-01-26T01:32:25;100013.81;;;-2.87;100.00
62712;BME280;48772;55.586;37.730;2023-01-26T01:34:51;99948.59;;;-3.28;100.00
62712;BME280;48772;55.586;37.730;2023-01-26T01:37:17;100028.50;;;-2.83;100.00
62712;BME280;48772;55.586;37.730;2023-01-26T01:39:42;99994.00;;;-2.97;100.00
62712;BME280;48772;55.586;37.730;2023-01-26T01:42:08;99997.28;;;-2.88;100.00
62712;BME280;48772;55.586;37.730;2023-01-26T01:44:35;100018.13;;;-2.86;100.00
62712;BME280;48772;55.586;37.730;2023-01-26T01:47:10;100026.72;;;-2.81;100.00
62712;BME280;48772;55.586;37.730;2023-01-26T01:49:47;100005.91;;;-2.84;100.00
62712;BME280;48772;55.586;37.730;2023-01-26T01:52:18;99941.47;;;-3.20;100.00
62712;BME280;48772;55.586;37.730;2023-01-26T01:55:02;100027.50;;;-2.78;100.00
62712;BME280;48772;55.586;37.730;2023-01-26T01:57:52;100024.88;;;-2.76;100.00
62712;BME280;48772;55.586;37.730;2023-01-26T02:00:21;100001.63;;;-2.87;100.00
62712;BME280;48772;55.586;37.730;2023-01-26T02:02:58;100002.38;;;-2.82;100.00
62712;BME280;48772;55.586;37.730;2023-01-26T02:08:42;99991.28;;;-2.91;100.00
62712;BME280;48772;55.586;37.730;2023-01-26T02:11:13;100002.38;;;-2.82;100.00
62712;BME280;48772;55.586;37.730;2023-01-26T02:13:43;100012.81;;;-2.82;100.00
62712;BME280;48772;55.586;37.730;2023-01-26T02:16:11;99940.56;;;-3.19;100.00
62712;BME280;48772;55.586;37.730;2023-01-26T02:18:37;99951.88;;;-3.19;100.00
62712;BME280;48772;55.586;37.730;2023-01-26T02:21:05;99990.59;;;-2.99;100.00
62712;BME280;48772;55.586;37.730;2023-01-26T02:26:26;100007.56;;;-2.80;100.00
62712;BME280;48772;55.586;37.730;2023-01-26T02:28:53;99949.97;;;-3.11;100.00
62712;BME280;48772;55.586;37.730;2023-01-26T02:31:21;100005.91;;;-2.84;100.00
62712;BME280;48772;55.586;37.730;2023-01-26T02:33:47;99977.38;;;-2.92;100.00
62712;BME280;48772;55.586;37.730;2023-01-26T02:36:22;99966.22;;;-2.98;100.00
62712;BME280;48772;55.586;37.730;2023-01-26T02:41:37;100004.88;;;-2.76;100.00
62712;BME280;48772;55.586;37.730;2023-01-26T02:44:22;99972.22;;;-2.95;100.00
62712;BME280;48772;55.586;37.730;2023-01-26T02:46:49;99931.03;;;-3.20;100.00
62712;BME280;48772;55.586;37.730;2023-01-26T02:49:16;99983.25;;;-2.82;100.00
62712;BME280;48772;55.586;37.730;2023-01-26T02:52:01;99947.00;;;-2.94;100.00
62712;BME280;48772;55.586;37.730;2023-01-26T02:54:26;99966.88;;;-2.89;100.00
62712;BME280;48772;55.586;37.730;2023-01-26T02:57:11;99959.13;;;-2.93;100.00
62712;BME280;48772;55.586;37.730;2023-01-26T02:59:36;99926.44;;;-3.08;100.00
62712;BME280;48772;55.586;37.730;2023-01-26T03:02:02;99907.53;;;-3.17;100.00
62712;BME280;48772;55.586;37.730;2023-01-26T03:04:28;99965.09;;;-2.87;100.00
62712;BME280;48772;55.586;37.730;2023-01-26T03:06:54;99958.13;;;-2.86;100.00
62712;BME280;48772;55.586;37.730;2023-01-26T03:09:19;99947.84;;;-2.92;100.00
62712;BME280;48772;55.586;37.730;2023-01-26T03:11:46;99945.94;;;-2.86;100.00
62712;BME280;48772;55.586;37.730;2023-01-26T03:14:14;99951.25;;;-2.90;100.00
62712;BME280;48772;55.586;37.730;2023-01-26T03:16:40;99960.59;;;-2.80;100.00
62712;BME280;48772;55.586;37.730;2023-01-26T03:19:10;99905.72;;;-3.15;100.00
62712;BME280;48772;55.586;37.730;2023-01-26T03:21:56;99940.81;;;-2.90;100.00
62712;BME280;48772;55.586;37.730;2023-01-26T03:24:41;99929.84;;;-3.06;100.00
62712;BME280;48772;55.586;37.730;2023-01-26T03:27:26;99957.31;;;-2.88;100.00
62712;BME280;48772;55.586;37.730;2023-01-26T03:29:55;99968.44;;;-2.80;100.00
62712;BME280;48772;55.586;37.730;2023-01-26T03:32:21;99933.22;;;-2.99;100.00
62712;BME280;48772;55.586;37.730;2023-01-26T03:34:49;99949.56;;;-2.93;100.00
62712;BME280;48772;55.586;37.730;2023-01-26T03:37:16;99931.41;;;-2.97;100.00
62712;BME280;48772;55.586;37.730;2023-01-26T03:39:54;99956.38;;;-2.86;100.00
62712;BME280;48772;55.586;37.730;2023-01-26T03:42:39;99944.41;;;-2.96;100.00
62712;BME280;48772;55.586;37.730;2023-01-26T03:45:23;99974.56;;;-2.81;100.00
62712;BME280;48772;55.586;37.730;2023-01-26T03:48:10;99965.84;;;-2.82;100.00
62712;BME280;48772;55.586;37.730;2023-01-26T03:50:55;99968.50;;;-2.83;100.00
62712;BME280;48772;55.586;37.730;2023-01-26T03:53:40;99940.25;;;-3.04;100.00
62712;BME280;48772;55.586;37.730;2023-01-26T03:56:25;99957.31;;;-2.88;100.00
62712;BME280;48772;55.586;37.730;2023-01-26T03:59:01;99976.59;;;-2.95;100.00
62712;BME280;48772;55.586;37.730;2023-01-26T04:01:38;99964.38;;;-2.95;100.00
62712;BME280;48772;55.586;37.730;2023-01-26T04:04:05;99942.63;;;-2.92;100.00
62712;BME280;48772;55.586;37.730;2023-01-26T04:06:50;99954.56;;;-2.84;100.00
62712;BME280;48772;55.586;37.730;2023-01-26T04:09:38;99946.19;;;-2.96;100.00
62712;BME280;48772;55.586;37.730;2023-01-26T04:12:05;99953.03;;;-2.91;100.00
62712;BME280;48772;55.586;37.730;2023-01-26T04:14:35;99964.94;;;-2.79;100.00
62712;BME280;48772;55.586;37.730;2023-01-26T04:17:23;99964.97;;;-2.82;100.00
62712;BME280;48772;55.586;37.730;2023-01-26T04:20:07;99967.81;;;-2.91;100.00
62712;BME280;48772;55.586;37.730;2023-01-26T04:22:52;99916.19;;;-3.17;100.00
62712;BME280;48772;55.586;37.730;2023-01-26T04:25:19;99966.84;;;-2.87;100.00
62712;BME280;48772;55.586;37.730;2023-01-26T04:27:45;99942.72;;;-2.97;100.00
62712;BME280;48772;55.586;37.730;2023-01-26T04:30:14;99922.97;;;-3.08;100.00
62712;BME280;48772;55.586;37.730;2023-01-26T04:32:49;99886.13;;;-3.33;100.00
62712;BME280;48772;55.586;37.730;2023-01-26T04:38:06;99906.72;;;-3.21;100.00
62712;BME280;48772;55.586;37.730;2023-01-26T04:40:31;99951.16;;;-2.86;100.00
62712;BME280;48772;55.586;37.730;2023-01-26T04:43:02;99878.00;;;-3.19;100.00
62712;BME280;48772;55.586;37.730;2023-01-26T04:45:31;99959.78;;;-2.82;100.00
62712;BME280;48772;55.586;37.730;2023-01-26T04:51:20;99860.16;;;-3.39;100.00
62712;BME280;48772;55.586;37.730;2023-01-26T04:54:24;99845.84;;;-3.60;100.00
62712;BME280;48772;55.586;37.730;2023-01-26T04:56:54;99919.50;;;-3.09;100.00
62712;BME280;48772;55.586;37.730;2023-01-26T04:59:24;99931.63;;;-3.06;100.00
62712;BME280;48772;55.586;37.730;2023-01-26T05:01:56;99839.88;;;-3.65;100.00
62712;BME280;48772;55.586;37.730;2023-01-26T05:04:38;99973.72;;;-2.83;100.00
62712;BME280;48772;55.586;37.730;2023-01-26T05:07:21;99928.16;;;-3.08;100.00
62712;BME280;48772;55.586;37.730;2023-01-26T05:10:15;99958.00;;;-2.80;100.00
62712;BME280;48772;55.586;37.730;2023-01-26T05:13:43;99905.53;;;-3.06;100.00
62712;BME280;48772;55.586;37.730;2023-01-26T05:16:20;99916.78;;;-3.04;100.00
62712;BME280;48772;55.586;37.730;2023-01-26T05:18:49;99927.31;;;-3.07;100.00
62712;BME280;48772;55.586;37.730;2023-01-26T05:21:25;99890.16;;;-3.18;100.00
62712;BME280;48772;55.586;37.730;2023-01-26T05:23:53;99947.81;;;-2.91;100.00
62712;BME280;48772;55.586;37.730;2023-01-26T05:26:42;99935.75;;;-2.96;100.00
62712;BME280;48772;55.586;37.730;2023-01-26T05:29:12;99926.06;;;-2.91;100.00
62712;BME280;48772;55.586;37.730;2023-01-26T05:31:38;99928.63;;;-2.88;100.00
62712;BME280;48772;55.586;37.730;2023-01-26T05:34:04;99943.25;;;-2.81;100.00
62712;BME280;48772;55.586;37.730;2023-01-26T05:36:32;99836.00;;;-3.46;100.00
62712;BME280;48772;55.586;37.730;2023-01-26T05:38:58;99905.47;;;-3.03;100.00
62712;BME280;48772;55.586;37.730;2023-01-26T05:41:25;99946.66;;;-2.79;100.00
62712;BME280;48772;55.586;37.730;2023-01-26T05:44:11;99947.50;;;-2.77;100.00
62712;BME280;48772;55.586;37.730;2023-01-26T05:46:41;99893.41;;;-3.07;100.00
62712;BME280;48772;55.586;37.730;2023-01-26T05:49:07;99953.53;;;-2.75;100.00
62712;BME280;48772;55.586;37.730;2023-01-26T05:51:33;99966.69;;;-2.80;100.00
62712;BME280;48772;55.586;37.730;2023-01-26T05:53:59;99893.28;;;-3.03;100.00
62712;BME280;48772;55.586;37.730;2023-01-26T05:56:25;99915.53;;;-2.87;100.00
62712;BME280;48772;55.586;37.730;2023-01-26T05:58:56;99909.50;;;-2.90;100.00
62712;BME280;48772;55.586;37.730;2023-01-26T06:01:22;99944.69;;;-2.70;100.00
62712;BME280;48772;55.586;37.730;2023-01-26T06:03:55;99953.34;;;-2.66;100.00
62712;BME280;48772;55.586;37.730;2023-01-26T06:06:21;99948.44;;;-2.80;100.00
62712;BME280;48772;55.586;37.730;2023-01-26T06:08:52;99969.00;;;-2.66;100.00
62712;BME280;48772;55.586;37.730;2023-01-26T06:11:31;99885.44;;;-3.03;100.00
62712;BME280;48772;55.586;37.730;2023-01-26T06:14:11;99944.75;;;-2.73;100.00
62712;BME280;48772;55.586;37.730;2023-01-26T06:16:37;99954.16;;;-2.64;100.00
62712;BME280;48772;55.586;37.730;2023-01-26T06:19:04;99819.34;;;-3.38;100.00
62712;BME280;48772;55.586;37.730;2023-01-26T06:21:32;99899.91;;;-2.88;100.00
62712;BME280;48772;55.586;37.730;2023-01-26T06:23:58;99934.88;;;-2.59;100.00
62712;BME280;48772;55.586;37.730;2023-01-26T06:26:24;99861.75;;;-2.92;100.00
62712;BME280;48772;55.586;37.730;2023-01-26T06:28:52;99901.38;;;-2.77;100.00
62712;BME280;48772;55.586;37.730;2023-01-26T06:31:20;99904.91;;;-2.79;100.00
62712;BME280;48772;55.586;37.730;2023-01-26T06:33:47;99929.66;;;-2.59;100.00
62712;BME280;48772;55.586;37.730;2023-01-26T06:36:14;99861.22;;;-3.06;100.00
62712;BME280;48772;55.586;37.730;2023-01-26T06:38:46;99825.78;;;-3.16;100.00
62712;BME280;48772;55.586;37.730;2023-01-26T06:41:12;99897.75;;;-2.71;100.00
62712;BME280;48772;55.586;37.730;2023-01-26T06:43:38;99909.81;;;-2.66;100.00
62712;BME280;48772;55.586;37.730;2023-01-26T06:46:04;99841.78;;;-2.95;100.00
62712;BME280;48772;55.586;37.730;2023-01-26T06:48:33;99906.13;;;-2.57;100.00
62712;BME280;48772;55.586;37.730;2023-01-26T06:51:36;99933.69;;;-2.44;100.00
62712;BME280;48772;55.586;37.730;2023-01-26T06:54:03;99893.25;;;-2.63;100.00
62712;BME280;48772;55.586;37.730;2023-01-26T06:56:49;99926.00;;;-2.52;100.00
62712;BME280;48772;55.586;37.730;2023-01-26T06:59:44;99902.56;;;-2.53;100.00
62712;BME280;48772;55.586;37.730;2023-01-26T07:02:19;99895.97;;;-2.68;100.00
62712;BME280;48772;55.586;37.730;2023-01-26T07:04:47;99873.47;;;-2.73;100.00
62712;BME280;48772;55.586;37.730;2023-01-26T07:07:13;99932.72;;;-2.40;100.00
62712;BME280;48772;55.586;37.730;2023-01-26T07:09:39;99929.19;;;-2.39;100.00
62712;BME280;48772;55.586;37.730;2023-01-26T07:12:05;99845.00;;;-2.84;100.00
62712;BME280;48772;55.586;37.730;2023-01-26T07:14:31;99865.69;;;-2.75;100.00
62712;BME280;48772;55.586;37.730;2023-01-26T07:16:57;99893.81;;;-2.51;100.00
62712;BME280;48772;55.586;37.730;2023-01-26T07:19:23;99945.63;;;-2.34;100.00
62712;BME280;48772;55.586;37.730;2023-01-26T07:21:49;99892.28;;;-2.59;100.00
62712;BME280;48772;55.586;37.730;2023-01-26T07:24:15;99884.63;;;-2.67;100.00
62712;BME280;48772;55.586;37.730;2023-01-26T07:26:40;99916.13;;;-2.39;100.00
62712;BME280;48772;55.586;37.730;2023-01-26T07:29:06;99904.72;;;-2.35;100.00
62712;BME280;48772;55.586;37.730;2023-01-26T07:31:32;99849.09;;;-2.72;100.00
62712;BME280;48772;55.586;37.730;2023-01-26T07:33:58;99858.38;;;-2.61;100.00
62712;BME280;48772;55.586;37.730;2023-01-26T07:36:24;99923.44;;;-2.17;100.00
62712;BME280;48772;55.586;37.730;2023-01-26T07:38:50;99848.88;;;-2.63;100.00
62712;BME280;48772;55.586;37.730;2023-01-26T07:41:15;99938.09;;;-2.11;100.00
62712;BME280;48772;55.586;37.730;2023-01-26T07:43:41;99926.75;;;-2.12;100.00
62712;BME280;48772;55.586;37.730;2023-01-26T07:46:07;99909.56;;;-2.20;100.00
62712;BME280;48772;55.586;37.730;2023-01-26T07:48:35;99902.56;;;-2.18;100.00
62712;BME280;48772;55.586;37.730;2023-01-26T07:51:02;99904.94;;;-2.09;100.00
62712;BME280;48772;55.586;37.730;2023-01-26T07:53:29;99923.31;;;-2.12;100.00
62712;BME280;48772;55.586;37.730;2023-01-26T07:56:10;99888.88;;;-2.28;100.00
62712;BME280;48772;55.586;37.730;2023-01-26T07:58:36;99877.63;;;-2.31;100.00
62712;BME280;48772;55.586;37.730;2023-01-26T08:01:04;99919.59;;;-2.04;100.00
62712;BME280;48772;55.586;37.730;2023-01-26T08:03:30;99861.97;;;-2.31;100.00
62712;BME280;48772;55.586;37.730;2023-01-26T08:05:56;99844.66;;;-2.35;100.00
62712;BME280;48772;55.586;37.730;2023-01-26T08:08:22;99880.06;;;-2.24;100.00
62712;BME280;48772;55.586;37.730;2023-01-26T08:10:48;99910.63;;;-1.94;100.00
62712;BME280;48772;55.586;37.730;2023-01-26T08:13:14;99894.25;;;-2.00;100.00
62712;BME280;48772;55.586;37.730;2023-01-26T08:15:40;99888.97;;;-1.97;100.00
62712;BME280;48772;55.586;37.730;2023-01-26T08:18:05;99878.47;;;-1.96;100.00
62712;BME280;48772;55.586;37.730;2023-01-26T08:20:32;99878.59;;;-2.00;100.00
62712;BME280;48772;55.586;37.730;2023-01-26T08:22:58;99875.69;;;-1.90;100.00
62712;BME280;48772;55.586;37.730;2023-01-26T08:25:24;99851.66;;;-2.04;100.00
62712;BME280;48772;55.586;37.730;2023-01-26T08:27:50;99903.31;;;-1.81;100.00
62712;BME280;48772;55.586;37.730;2023-01-26T08:30:16;99879.09;;;-1.86;100.00
62712;BME280;48772;55.586;37.730;2023-01-26T08:32:42;99857.84;;;-2.06;100.00
62712;BME280;48772;55.586;37.730;2023-01-26T08:35:08;99885.63;;;-2.04;100.00
62712;BME280;48772;55.586;37.730;2023-01-26T08:37:34;99878.28;;;-1.90;100.00
62712;BME280;48772;55.586;37.730;2023-01-26T08:40:00;99899.94;;;-1.85;100.00
62712;BME280;48772;55.586;37.730;2023-01-26T08:42:26;99893.03;;;-1.87;100.00
62712;BME280;48772;55.586;37.730;2023-01-26T08:44:52;99869.50;;;-1.87;100.00
62712;BME280;48772;55.586;37.730;2023-01-26T08:47:18;99857.31;;;-1.87;100.00
62712;BME280;48772;55.586;37.730;2023-01-26T08:49:44;99841.78;;;-1.93;100.00
62712;BME280;48772;55.586;37.730;2023-01-26T08:52:09;99823.84;;;-2.05;100.00
62712;BME280;48772;55.586;37.730;2023-01-26T08:54:35;99857.78;;;-1.73;100.00
62712;BME280;48772;55.586;37.730;2023-01-26T08:57:01;99871.66;;;-1.71;100.00
62712;BME280;48772;55.586;37.730;2023-01-26T08:59:27;99812.72;;;-2.11;100.00
62712;BME280;48772;55.586;37.730;2023-01-26T09:01:52;99888.31;;;-1.75;100.00
62712;BME280;48772;55.586;37.730;2023-01-26T09:04:20;99863.06;;;-1.74;100.00
62712;BME280;48772;55.586;37.730;2023-01-26T09:06:46;99877.69;;;-1.67;100.00
62712;BME280;48772;55.586;37.730;2023-01-26T09:09:11;99818.19;;;-1.90;100.00
62712;BME280;48772;55.586;37.730;2023-01-26T09:11:39;99817.66;;;-2.02;100.00
62712;BME280;48772;55.586;37.730;2023-01-26T09:14:05;99885.41;;;-1.63;100.00
62712;BME280;48772;55.586;37.730;2023-01-26T09:16:31;99837.34;;;-1.89;100.00
62712;BME280;48772;55.586;37.730;2023-01-26T09:18:57;99881.91;;;-1.63;100.00
62712;BME280;48772;55.586;37.730;2023-01-26T09:21:23;99827.53;;;-1.81;100.00
62712;BME280;48772;55.586;37.730;2023-01-26T09:23:49;99853.75;;;-1.54;100.00
62712;BME280;48772;55.586;37.730;2023-01-26T09:26:15;99857.41;;;-1.59;100.00
62712;BME280;48772;55.586;37.730;2023-01-26T09:28:41;99853.59;;;-1.48;100.00
62712;BME280;48772;55.586;37.730;2023-01-26T09:31:08;99846.50;;;-1.44;100.00
62712;BME280;48772;55.586;37.730;2023-01-26T09:33:35;99797.81;;;-1.77;100.00
62712;BME280;48772;55.586;37.730;2023-01-26T09:36:09;99856.88;;;-1.41;100.00
62712;BME280;48772;55.586;37.730;2023-01-26T09:38:35;99843.63;;;-1.64;100.00
62712;BME280;48772;55.586;37.730;2023-01-26T09:43:51;99828.59;;;-1.58;100.00
62712;BME280;48772;55.586;37.730;2023-01-26T09:46:39;99841.19;;;-1.41;100.00
62712;BME280;48772;55.586;37.730;2023-01-26T09:49:14;99850.00;;;-1.44;100.00
62712;BME280;48772;55.586;37.730;2023-01-26T09:52:17;99835.91;;;-1.40;100.00
62712;BME280;48772;55.586;37.730;2023-01-26T09:54:58;99845.72;;;-1.46;100.00
62712;BME280;48772;55.586;37.730;2023-01-26T09:57:47;99840.38;;;-1.43;100.00
62712;BME280;48772;55.586;37.730;2023-01-26T10:05:53;99839.25;;;-1.35;100.00
62712;BME280;48772;55.586;37.730;2023-01-26T10:08:42;99815.84;;;-1.39;100.00
62712;BME280;48772;55.586;37.730;2023-01-26T10:13:58;99800.59;;;-1.54;100.00
62712;BME280;48772;55.586;37.730;2023-01-26T10:16:25;99837.63;;;-1.39;100.00
62712;BME280;48772;55.586;37.730;2023-01-26T10:19:38;99798.22;;;-1.62;100.00
62712;BME280;48772;55.586;37.730;2023-01-26T10:22:13;99832.53;;;-1.43;100.00
62712;BME280;48772;55.586;37.730;2023-01-26T10:24:41;99832.97;;;-1.29;100.00
62712;BME280;48772;55.586;37.730;2023-01-26T10:27:11;99787.66;;;-1.57;100.00
62712;BME280;48772;55.586;37.730;2023-01-26T10:29:39;99781.88;;;-1.68;100.00
62712;BME280;48772;55.586;37.730;2023-01-26T10:32:05;99831.28;;;-1.30;100.00
62712;BME280;48772;55.586;37.730;2023-01-26T10:34:31;99828.13;;;-1.41;100.00
62712;BME280;48772;55.586;37.730;2023-01-26T10:37:10;99810.84;;;-1.47;100.00
62712;BME280;48772;55.586;37.730;2023-01-26T10:39:59;99828.03;;;-1.38;100.00
62712;BME280;48772;55.586;37.730;2023-01-26T10:42:31;99835.53;;;-1.28;100.00
62712;BME280;48772;55.586;37.730;2023-01-26T10:44:58;99818.94;;;-1.27;100.00
62712;BME280;48772;55.586;37.730;2023-01-26T10:47:32;99820.50;;;-1.21;100.00
62712;BME280;48772;55.586;37.730;2023-01-26T10:50:19;99832.88;;;-1.26;100.00
62712;BME280;48772;55.586;37.730;2023-01-26T10:53:00;99799.88;;;-1.30;100.00
62712;BME280;48772;55.586;37.730;2023-01-26T10:55:27;99749.94;;;-1.50;100.00
62712;BME280;48772;55.586;37.730;2023-01-26T10:57:54;99775.34;;;-1.26;100.00
62712;BME280;48772;55.586;37.730;2023-01-26T11:02:52;99726.41;;;-1.50;100.00
62712;BME280;48772;55.586;37.730;2023-01-26T11:05:23;99792.22;;;-1.09;100.00
62712;BME280;48772;55.586;37.730;2023-01-26T11:07:54;99774.03;;;-1.12;100.00
62712;BME280;48772;55.586;37.730;2023-01-26T11:10:26;99753.41;;;-1.22;100.00
62712;BME280;48772;55.586;37.730;2023-01-26T11:13:13;99763.94;;;-1.24;100.00
62712;BME280;48772;55.586;37.730;2023-01-26T11:21:19;99787.03;;;-1.10;100.00
62712;BME280;48772;55.586;37.730;2023-01-26T11:24:03;99778.47;;;-1.15;100.00
62712;BME280;48772;55.586;37.730;2023-01-26T11:29:20;99755.84;;;-1.16;100.00
62712;BME280;48772;55.586;37.730;2023-01-26T11:40:35;99642.88;;;-1.81;100.00
62712;BME280;48772;55.586;37.730;2023-01-26T11:59:46;99704.31;;;-1.40;100.00
62712;BME280;48772;55.586;37.730;2023-01-26T12:02:30;99765.84;;;-1.01;100.00
62712;BME280;48772;55.586;37.730;2023-01-26T12:05:01;99749.53;;;-1.09;100.00
62712;BME280;48772;55.586;37.730;2023-01-26T12:10:18;99753.94;;;-1.11;100.00
62712;BME280;48772;55.586;37.730;2023-01-26T12:12:50;99757.16;;;-1.03;100.00
62712;BME280;48772;55.586;37.730;2023-01-26T12:15:24;99690.22;;;-1.36;100.00
62712;BME280;48772;55.586;37.730;2023-01-26T12:21:10;99730.25;;;-1.07;100.00
62712;BME280;48772;55.586;37.730;2023-01-26T12:26:22;99714.66;;;-1.10;100.00
62712;BME280;48772;55.586;37.730;2023-01-26T12:28:51;99709.59;;;-1.16;100.00
62712;BME280;48772;55.586;37.730;2023-01-26T12:31:32;99737.75;;;-0.96;100.00
62712;BME280;48772;55.586;37.730;2023-01-26T12:34:00;99717.31;;;-1.11;100.00
62712;BME280;48772;55.586;37.730;2023-01-26T12:44:36;99741.09;;;-0.91;100.00
62712;BME280;48772;55.586;37.730;2023-01-26T12:47:07;99715.41;;;-1.06;100.00
62712;BME280;48772;55.586;37.730;2023-01-26T12:49:50;99734.34;;;-0.98;100.00
62712;BME280;48772;55.586;37.730;2023-01-26T12:55:15;99690.03;;;-1.30;100.00
62712;BME280;48772;55.586;37.730;2023-01-26T12:58:23;99741.38;;;-1.00;100.00
62712;BME280;48772;55.586;37.730;2023-01-26T13:01:03;99727.63;;;-1.07;100.00
62712;BME280;48772;55.586;37.730;2023-01-26T13:03:33;99731.72;;;-0.98;100.00
62712;BME280;48772;55.586;37.730;2023-01-26T13:11:07;99720.19;;;-1.19;100.00
62712;BME280;48772;55.586;37.730;2023-01-26T13:13:53;99753.75;;;-1.05;100.00
62712;BME280;48772;55.586;37.730;2023-01-26T13:18:53;99718.00;;;-1.32;100.00
62712;BME280;48772;55.586;37.730;2023-01-26T13:34:43;99746.13;;;-1.13;100.00
62712;BME280;48772;55.586;37.730;2023-01-26T13:37:15;99709.44;;;-1.37;100.00
62712;BME280;48772;55.586;37.730;2023-01-26T13:39:50;99741.72;;;-1.11;100.00
62712;BME280;48772;55.586;37.730;2023-01-26T13:42:36;99723.72;;;-1.21;100.00
62712;BME280;48772;55.586;37.730;2023-01-26T13:47:48;99718.00;;;-1.32;100.00
62712;BME280;48772;55.586;37.730;2023-01-26T13:52:47;99751.38;;;-1.13;100.00
62712;BME280;48772;55.586;37.730;2023-01-26T13:55:22;99747.88;;;-1.12;100.00
62712;BME280;48772;55.586;37.730;2023-01-26T13:58:09;99714.75;;;-1.40;100.00
62712;BME280;48772;55.586;37.730;2023-01-26T14:00:35;99758.66;;;-1.22;100.00
62712;BME280;48772;55.586;37.730;2023-01-26T14:03:00;99721.91;;;-1.45;100.00
62712;BME280;48772;55.586;37.730;2023-01-26T14:05:27;99770.91;;;-1.23;100.00
62712;BME280;48772;55.586;37.730;2023-01-26T14:07:53;99761.25;;;-1.22;100.00
62712;BME280;48772;55.586;37.730;2023-01-26T14:10:21;99755.13;;;-1.21;100.00
62712;BME280;48772;55.586;37.730;2023-01-26T14:12:53;99718.28;;;-1.41;100.00
62712;BME280;48772;55.586;37.730;2023-01-26T14:15:28;99744.31;;;-1.37;100.00
62712;BME280;48772;55.586;37.730;2023-01-26T14:18:02;99715.50;;;-1.63;100.00
62712;BME280;48772;55.586;37.730;2023-01-26T14:20:34;99763.44;;;-1.36;100.00
62712;BME280;48772;55.586;37.730;2023-01-26T14:23:14;99777.66;;;-1.45;100.00
62712;BME280;48772;55.586;37.730;2023-01-26T14:26:02;99761.84;;;-1.40;100.00
62712;BME280;48772;55.586;37.730;2023-01-26T14:28:41;99764.56;;;-1.45;100.00
62712;BME280;48772;55.586;37.730;2023-01-26T14:31:21;99759.56;;;-1.51;100.00
62712;BME280;48772;55.586;37.730;2023-01-26T14:33:49;99749.19;;;-1.54;100.00
62712;BME280;48772;55.586;37.730;2023-01-26T14:36:19;99758.59;;;-1.48;100.00
62712;BME280;48772;55.586;37.730;2023-01-26T14:38:47;99739.84;;;-1.62;100.00
62712;BME280;48772;55.586;37.730;2023-01-26T14:41:31;99748.22;;;-1.51;100.00
62712;BME280;48772;55.586;37.730;2023-01-26T14:43:58;99757.91;;;-1.53;100.00
62712;BME280;48772;55.586;37.730;2023-01-26T14:52:29;99753.66;;;-1.57;100.00
62712;BME280;48772;55.586;37.730;2023-01-26T14:55:06;99758.16;;;-1.62;100.00